Time;durP1;ratioP1;P1;durP2;ratioP2;P2;SDS_P1;SDS_P2;PMS_P1;PMS_P2;Temp;Humidity;BMP_temperature;BMP_pressure;BME280_temperature;BME280_humidity;BME280_pressure;Samples;Min_cycle;Max_cycle;Signal;HPM_P1;HPM_P2
2023/06/20 00:00:07;;;;;;;21.90;15.47;;;23.60;1.00;;;;;;5042793;28;20216;-74
2023/06/20 00:02:33;;;;;;;20.77;13.80;;;23.40;1.00;;;;;;5040779;28;20219;-74
2023/06/20 00:05:00;;;;;;;19.30;14.87;;;23.20;1.00;;;;;;5025266;28;20549;-74
2023/06/20 00:07:26;;;;;;;19.60;14.57;;;23.10;1.00;;;;;;5026578;28;20195;-75
2023/06/20 00:09:51;;;;;;;18.00;15.20;;;23.00;1.00;;;;;;5028592;28;20466;-74
2023/06/20 00:12:17;;;;;;;17.73;15.03;;;22.70;1.00;;;;;;5035600;28;20195;-74
2023/06/20 00:14:42;;;;;;;21.93;15.07;;;22.50;1.00;;;;;;5030701;28;20181;-74
2023/06/20 00:17:08;;;;;;;35.63;17.97;;;22.20;1.00;;;;;;5040329;28;20264;-77
2023/06/20 00:19:34;;;;;;;48.87;22.17;;;22.70;1.00;;;;;;5032856;28;20246;-75
2023/06/20 00:22:02;;;;;;;81.67;25.93;;;21.80;1.00;;;;;;5045147;28;20259;-75
2023/06/20 00:24:28;;;;;;;35.03;24.10;;;21.90;1.00;;;;;;5031356;28;20714;-75
2023/06/20 00:26:56;;;;;;;50.63;22.77;;;22.00;1.00;;;;;;5040509;28;20453;-75
2023/06/20 00:29:21;;;;;;;33.70;20.87;;;22.10;1.00;;;;;;5041795;28;20205;-75
2023/06/20 00:31:47;;;;;;;42.73;22.17;;;22.10;1.00;;;;;;5041208;28;20501;-74
2023/06/20 00:34:12;;;;;;;43.70;23.40;;;22.10;1.00;;;;;;5042569;28;20181;-76
2023/06/20 00:36:38;;;;;;;61.53;24.17;;;22.10;1.00;;;;;;5046940;28;20191;-75
2023/06/20 00:39:03;;;;;;;36.83;22.90;;;22.10;1.00;;;;;;5034706;28;20196;-76
2023/06/20 00:41:31;;;;;;;35.87;22.43;;;22.00;1.00;;;;;;5062384;28;20268;-75
2023/06/20 00:44:00;;;;;;;35.73;21.90;;;21.90;1.00;;;;;;5042413;28;20173;-75
2023/06/20 00:46:26;;;;;;;30.50;22.13;;;21.90;1.00;;;;;;5044570;28;20500;-75
2023/06/20 00:48:52;;;;;;;32.13;21.43;;;21.90;1.00;;;;;;5046102;28;20458;-75
2023/06/20 00:51:19;;;;;;;33.97;22.20;;;21.80;1.00;;;;;;5043486;28;20189;-74
2023/06/20 00:53:46;;;;;;;28.97;21.53;;;21.80;1.00;;;;;;5035299;28;20169;-75
2023/06/20 00:56:12;;;;;;;27.17;20.67;;;21.80;1.00;;;;;;5033424;28;20517;-75
2023/06/20 00:58:38;;;;;;;27.17;21.20;;;21.90;1.00;;;;;;5030061;28;20538;-75
2023/06/20 01:01:04;;;;;;;44.87;22.07;;;21.90;1.00;;;;;;5036772;28;20182;-75
2023/06/20 01:03:31;;;;;;;22.30;14.20;;;21.90;1.00;;;;;;5029957;28;20582;-75
2023/06/20 01:06:23;;;;;;;18.50;10.10;;;21.70;1.00;;;;;;5031800;28;20177;-75
2023/06/20 01:09:07;;;;;;;16.50;9.87;;;21.00;1.00;;;;;;5061816;28;20455;-75
2023/06/20 01:11:55;;;;;;;47.57;13.27;;;20.70;1.00;;;;;;5035621;28;20440;-74
2023/06/20 01:14:46;;;;;;;21.27;12.00;;;20.60;1.00;;;;;;5032797;28;20436;-76
2023/06/20 01:17:26;;;;;;;15.67;12.27;;;20.50;1.00;;;;;;5028213;28;20450;-77
2023/06/20 01:20:05;;;;;;;21.03;15.60;;;20.40;1.00;;;;;;5034355;28;20454;-76
2023/06/20 01:22:36;;;;;;;26.77;18.93;;;20.40;1.00;;;;;;5043387;28;20453;-75
2023/06/20 01:25:08;;;;;;;28.73;18.83;;;20.50;1.00;;;;;;5036864;28;20802;-74
2023/06/20 01:27:40;;;;;;;23.60;16.83;;;20.50;1.00;;;;;;5042597;28;20439;-74
2023/06/20 01:30:20;;;;;;;19.53;14.27;;;20.60;1.00;;;;;;5035820;28;20693;-74
2023/06/20 01:32:47;;;;;;;18.53;12.97;;;20.60;1.00;;;;;;5031432;28;20427;-74
2023/06/20 01:35:21;;;;;;;11.47;8.77;;;20.70;1.00;;;;;;5031306;28;20450;-75
2023/06/20 01:37:52;;;;;;;10.43;8.20;;;20.70;1.00;;;;;;5031324;28;20435;-74
2023/06/20 01:40:20;;;;;;;13.37;8.23;;;20.60;1.00;;;;;;5046424;28;20475;-74
2023/06/20 01:42:48;;;;;;;9.13;7.03;;;20.40;1.00;;;;;;5039374;28;20446;-74
2023/06/20 01:45:15;;;;;;;11.40;8.00;;;20.40;1.00;;;;;;5038658;28;20436;-74
2023/06/20 01:47:42;;;;;;;10.00;7.10;;;20.40;1.00;;;;;;5033630;28;20463;-75
2023/06/20 01:50:09;;;;;;;13.70;6.80;;;20.40;1.00;;;;;;5044192;28;20462;-74
2023/06/20 01:52:36;;;;;;;7.77;6.43;;;21.70;1.00;;;;;;5044618;28;20478;-74
2023/06/20 01:55:04;;;;;;;9.60;6.47;;;20.40;1.00;;;;;;5029834;28;20464;-74
2023/06/20 01:57:32;;;;;;;10.97;7.63;;;20.40;1.00;;;;;;5044992;28;20427;-74
2023/06/20 01:59:59;;;;;;;12.00;8.00;;;20.40;1.00;;;;;;5044561;28;20477;-74
2023/06/20 02:02:27;;;;;;;10.00;6.57;;;20.30;1.00;;;;;;5042024;28;20945;-75
2023/06/20 02:04:56;;;;;;;8.50;7.17;;;20.30;1.00;;;;;;5043640;28;20460;-74
2023/06/20 02:07:23;;;;;;;7.10;5.87;;;20.30;1.00;;;;;;5044540;28;20466;-75
2023/06/20 02:09:49;;;;;;;7.33;5.70;;;20.30;1.00;;;;;;5046214;28;20477;-75
2023/06/20 02:12:16;;;;;;;8.77;5.80;;;20.20;1.00;;;;;;5042021;28;20452;-74
2023/06/20 02:14:43;;;;;;;10.47;5.97;;;20.10;1.00;;;;;;5030412;28;20431;-74
2023/06/20 02:17:12;;;;;;;9.00;6.30;;;20.00;1.00;;;;;;5044469;28;20435;-74
2023/06/20 02:19:38;;;;;;;9.17;6.80;;;20.00;1.00;;;;;;5042498;28;20448;-75
2023/06/20 02:22:05;;;;;;;11.57;8.03;;;20.00;1.00;;;;;;5037249;28;20440;-74
2023/06/20 02:24:33;;;;;;;10.50;8.20;;;20.00;1.00;;;;;;5032585;28;20182;-76
2023/06/20 02:27:01;;;;;;;11.80;8.43;;;20.20;1.00;;;;;;5032124;28;20431;-74
2023/06/20 02:29:33;;;;;;;11.73;8.87;;;20.00;1.00;;;;;;5034823;28;20475;-74
2023/06/20 02:32:00;;;;;;;11.93;10.30;;;20.00;1.00;;;;;;5038211;28;20440;-73
2023/06/20 02:34:27;;;;;;;17.93;10.37;;;20.00;1.00;;;;;;5032578;28;20795;-74
2023/06/20 02:36:55;;;;;;;12.17;10.67;;;20.00;1.00;;;;;;5031286;28;20497;-74
2023/06/20 02:39:21;;;;;;;12.40;10.27;;;20.00;1.00;;;;;;5060787;28;21029;-74
2023/06/20 02:41:47;;;;;;;10.70;9.37;;;20.10;1.00;;;;;;5047304;28;20612;-74
2023/06/20 02:44:12;;;;;;;11.33;9.50;;;20.10;1.00;;;;;;5048721;28;20522;-74
2023/06/20 02:47:16;;;;;;;10.17;8.63;;;20.00;1.00;;;;;;5031349;28;20694;-74
2023/06/20 02:50:02;;;;;;;10.10;8.80;;;20.00;1.00;;;;;;5035555;28;20208;-74
2023/06/20 02:52:48;;;;;;;10.37;8.23;;;20.00;1.00;;;;;;5036884;28;21023;-74
2023/06/20 02:56:10;;;;;;;12.00;8.30;;;20.00;1.00;;;;;;5036161;28;20447;-74
2023/06/20 02:58:40;;;;;;;10.77;9.40;;;19.90;1.00;;;;;;5015621;28;20444;-74
2023/06/20 03:01:07;;;;;;;14.10;10.60;;;19.90;1.00;;;;;;5007361;28;20453;-73
2023/06/20 03:03:36;;;;;;;11.50;10.20;;;19.90;1.00;;;;;;5025107;28;20444;-75
2023/06/20 03:06:02;;;;;;;15.20;12.13;;;19.90;1.00;;;;;;5040513;28;20964;-73
2023/06/20 03:08:29;;;;;;;15.00;11.80;;;20.00;1.00;;;;;;5041913;28;20435;-74
2023/06/20 03:10:57;;;;;;;13.93;12.10;;;20.00;1.00;;;;;;5038265;28;21020;-73
2023/06/20 03:13:22;;;;;;;14.80;12.17;;;20.00;1.00;;;;;;5038720;28;20455;-74
2023/06/20 03:15:51;;;;;;;16.40;13.70;;;20.00;1.00;;;;;;5041036;28;20945;-74
2023/06/20 03:18:18;;;;;;;14.77;12.17;;;20.00;1.00;;;;;;5043045;28;20798;-73
2023/06/20 03:20:48;;;;;;;14.97;12.10;;;20.00;1.00;;;;;;5040890;28;20455;-74
2023/06/20 03:23:14;;;;;;;18.40;13.50;;;20.00;1.00;;;;;;5036581;28;20440;-75
2023/06/20 03:25:40;;;;;;;20.87;13.67;;;20.00;1.00;;;;;;5030700;28;20443;-76
2023/06/20 03:28:06;;;;;;;20.23;13.53;;;20.10;1.00;;;;;;5041922;28;20439;-74
2023/06/20 03:30:32;;;;;;;15.90;13.63;;;20.00;1.00;;;;;;5043113;28;20514;-75
2023/06/20 03:32:57;;;;;;;18.77;14.80;;;20.10;1.00;;;;;;5039155;28;20205;-75
2023/06/20 03:35:23;;;;;;;19.40;14.40;;;20.10;1.00;;;;;;5032872;28;20174;-74
2023/06/20 03:37:48;;;;;;;21.53;18.03;;;20.10;1.00;;;;;;5033581;28;20520;-73
2023/06/20 03:40:14;;;;;;;21.33;17.60;;;20.10;1.00;;;;;;5041719;28;20288;-74
2023/06/20 03:42:41;;;;;;;20.47;16.20;;;20.10;1.00;;;;;;5041351;28;20188;-73
2023/06/20 03:45:07;;;;;;;17.43;15.30;;;20.20;1.00;;;;;;5038011;28;20270;-74
2023/06/20 03:47:33;;;;;;;18.73;15.40;;;20.20;1.00;;;;;;5043461;28;20508;-74
2023/06/20 03:49:58;;;;;;;17.03;15.23;;;20.50;1.00;;;;;;5038754;28;20471;-74
2023/06/20 03:52:24;;;;;;;19.20;15.10;;;20.30;1.00;;;;;;5031386;28;20177;-74
2023/06/20 03:54:49;;;;;;;18.33;15.00;;;20.30;1.00;;;;;;5034619;28;20264;-73
2023/06/20 03:57:15;;;;;;;21.73;14.90;;;20.30;1.00;;;;;;5039771;28;20223;-73
2023/06/20 03:59:40;;;;;;;18.23;15.57;;;20.40;1.00;;;;;;5034309;28;20264;-73
2023/06/20 04:02:06;;;;;;;17.13;14.13;;;20.30;1.00;;;;;;5033232;28;20203;-73
2023/06/20 04:04:32;;;;;;;17.73;14.40;;;20.30;1.00;;;;;;5036920;28;20184;-73
2023/06/20 04:06:57;;;;;;;16.90;14.20;;;20.30;1.00;;;;;;5034623;28;20435;-74
2023/06/20 04:09:26;;;;;;;17.63;15.27;;;22.10;1.00;;;;;;5043573;28;20216;-73
2023/06/20 04:11:53;;;;;;;17.50;14.90;;;20.40;1.00;;;;;;5033327;28;20590;-74
2023/06/20 04:14:19;;;;;;;18.33;15.27;;;20.40;1.00;;;;;;5028652;28;20447;-73
2023/06/20 04:16:47;;;;;;;18.47;15.13;;;20.40;1.00;;;;;;5030628;28;20440;-73
2023/06/20 04:19:14;;;;;;;16.43;14.70;;;20.50;1.00;;;;;;5043405;28;20193;-74
2023/06/20 04:21:39;;;;;;;17.77;14.23;;;20.50;1.00;;;;;;5036540;28;20529;-74
2023/06/20 04:24:05;;;;;;;19.33;13.80;;;20.60;1.00;;;;;;5030184;28;20478;-74
2023/06/20 04:26:30;;;;;;;17.13;14.10;;;20.60;1.00;;;;;;5025743;28;20273;-74
2023/06/20 04:28:57;;;;;;;17.80;14.60;;;20.60;1.00;;;;;;5043040;28;20362;-74
2023/06/20 04:31:22;;;;;;;17.27;14.00;;;20.60;1.00;;;;;;5043897;28;20204;-73
2023/06/20 04:33:48;;;;;;;17.57;14.07;;;20.70;1.00;;;;;;5030737;28;20503;-73
2023/06/20 04:36:13;;;;;;;16.10;13.00;;;20.70;1.00;;;;;;5040935;28;20809;-74
2023/06/20 04:38:40;;;;;;;18.20;13.97;;;20.90;1.00;;;;;;5037810;28;20189;-74
2023/06/20 04:41:05;;;;;;;15.57;13.13;;;20.90;1.00;;;;;;5034012;28;20555;-74
2023/06/20 04:43:31;;;;;;;17.03;14.07;;;20.90;1.00;;;;;;5037474;28;20448;-73
2023/06/20 04:45:57;;;;;;;17.23;14.27;;;20.90;1.00;;;;;;5037283;28;20183;-73
2023/06/20 04:48:29;;;;;;;16.23;14.37;;;21.00;1.00;;;;;;5046641;28;20267;-74
2023/06/20 04:50:55;;;;;;;18.00;13.20;;;21.00;1.00;;;;;;5057635;28;20208;-73
2023/06/20 04:53:27;;;;;;;18.27;14.20;;;21.00;1.00;;;;;;5037832;28;20463;-74
2023/06/20 04:55:54;;;;;;;16.73;14.40;;;21.10;1.00;;;;;;5037518;28;20443;-74
2023/06/20 04:58:19;;;;;;;18.30;14.43;;;21.10;1.00;;;;;;5036040;28;20438;-73
2023/06/20 05:00:45;;;;;;;18.57;13.90;;;21.10;1.00;;;;;;5044365;28;20549;-74
2023/06/20 05:03:11;;;;;;;18.60;14.13;;;21.50;1.00;;;;;;5035682;28;20185;-74
2023/06/20 05:05:36;;;;;;;18.10;12.83;;;21.30;1.00;;;;;;5033302;28;20197;-74
2023/06/20 05:08:02;;;;;;;16.60;12.73;;;21.40;1.00;;;;;;5040887;28;20438;-73
2023/06/20 05:10:28;;;;;;;13.77;12.33;;;21.40;1.00;;;;;;5043231;28;20235;-73
2023/06/20 05:12:53;;;;;;;15.17;13.57;;;21.50;1.00;;;;;;5039217;28;20327;-73
2023/06/20 05:15:23;;;;;;;14.33;12.83;;;21.60;1.00;;;;;;5040036;28;20205;-74
2023/06/20 05:17:50;;;;;;;13.27;11.87;;;21.60;1.00;;;;;;5039866;28;20177;-73
2023/06/20 05:20:15;;;;;;;17.00;12.07;;;21.60;1.00;;;;;;5035897;28;20512;-74
2023/06/20 05:22:41;;;;;;;17.93;13.00;;;21.70;1.00;;;;;;5034839;28;20448;-73
2023/06/20 05:25:07;;;;;;;16.30;13.57;;;21.70;1.00;;;;;;5030198;28;20189;-73
2023/06/20 05:27:32;;;;;;;16.30;13.17;;;21.80;1.00;;;;;;5040476;28;20671;-73
2023/06/20 05:29:58;;;;;;;15.00;13.40;;;21.80;1.00;;;;;;5041985;28;20262;-77
2023/06/20 05:32:23;;;;;;;15.30;12.47;;;21.80;1.00;;;;;;5041073;28;20263;-73
2023/06/20 05:34:49;;;;;;;14.83;11.97;;;21.90;1.00;;;;;;5038770;28;20310;-74
2023/06/20 05:37:16;;;;;;;16.50;12.50;;;21.90;1.00;;;;;;5038830;28;20185;-74
2023/06/20 05:39:41;;;;;;;17.57;12.50;;;21.90;1.00;;;;;;5040047;28;20240;-73
2023/06/20 05:42:07;;;;;;;15.33;12.17;;;22.20;1.00;;;;;;5041313;28;20467;-74
2023/06/20 05:44:32;;;;;;;13.60;12.20;;;22.10;1.00;;;;;;5043057;28;20188;-74
2023/06/20 05:46:58;;;;;;;15.07;12.70;;;22.10;1.00;;;;;;5038121;28;20920;-73
2023/06/20 05:49:23;;;;;;;17.47;13.17;;;22.10;1.00;;;;;;5039856;28;20227;-73
2023/06/20 05:51:49;;;;;;;18.00;13.37;;;22.20;1.00;;;;;;5040787;28;20655;-74
2023/06/20 05:54:14;;;;;;;15.07;12.40;;;22.20;1.00;;;;;;5036906;28;20185;-73
2023/06/20 05:56:40;;;;;;;17.27;13.63;;;22.30;1.00;;;;;;5031313;28;20193;-73
2023/06/20 05:59:06;;;;;;;15.97;11.90;;;22.30;1.00;;;;;;5038203;28;20259;-74
2023/06/20 06:01:31;;;;;;;15.47;12.00;;;22.40;1.00;;;;;;5029275;28;20192;-73
2023/06/20 06:03:57;;;;;;;15.17;12.20;;;22.40;1.00;;;;;;5041032;28;20852;-73
2023/06/20 06:06:24;;;;;;;16.20;12.10;;;22.50;1.00;;;;;;5041883;28;20197;-73
2023/06/20 06:08:50;;;;;;;12.77;11.40;;;22.60;1.00;;;;;;5030136;28;20300;-73
2023/06/20 06:11:16;;;;;;;14.27;12.10;;;22.60;1.00;;;;;;5028104;28;20470;-75
2023/06/20 06:13:42;;;;;;;16.13;12.87;;;22.70;1.00;;;;;;5038360;28;20511;-74
2023/06/20 06:16:07;;;;;;;13.93;11.30;;;22.80;1.00;;;;;;5029429;28;20432;-73
2023/06/20 06:18:33;;;;;;;13.50;11.50;;;22.90;1.00;;;;;;5029447;28;20207;-74
2023/06/20 06:20:59;;;;;;;14.40;12.03;;;22.90;1.00;;;;;;5028218;28;20189;-73
2023/06/20 06:23:24;;;;;;;14.00;11.60;;;23.00;1.00;;;;;;5028216;28;20185;-75
2023/06/20 06:25:52;;;;;;;13.10;10.97;;;23.10;1.00;;;;;;5029115;28;20264;-71
2023/06/20 06:28:17;;;;;;;12.52;10.98;;;23.20;1.00;;;;;;5036652;28;20517;-72
2023/06/20 06:30:43;;;;;;;13.30;11.87;;;23.30;1.00;;;;;;5030844;28;20213;-72
2023/06/20 06:33:10;;;;;;;13.40;11.50;;;23.40;1.00;;;;;;5031031;28;20290;-73
2023/06/20 06:35:36;;;;;;;14.13;11.87;;;23.40;1.00;;;;;;5030181;28;20216;-72
2023/06/20 06:38:04;;;;;;;13.80;11.33;;;23.40;1.00;;;;;;5041207;28;20430;-72
2023/06/20 06:40:30;;;;;;;14.27;12.03;;;23.50;1.00;;;;;;5030892;28;20435;-72
2023/06/20 06:42:56;;;;;;;14.67;11.30;;;23.50;1.00;;;;;;5031255;28;20431;-72
2023/06/20 06:45:21;;;;;;;14.30;11.60;;;23.60;1.00;;;;;;5036245;28;20197;-76
2023/06/20 06:47:47;;;;;;;13.83;12.20;;;23.60;1.00;;;;;;5030395;28;20644;-73
2023/06/20 06:50:12;;;;;;;12.53;11.20;;;23.90;1.00;;;;;;5035548;28;20213;-76
2023/06/20 06:52:39;;;;;;;13.83;12.20;;;23.90;1.00;;;;;;5032750;28;20177;-73
2023/06/20 06:55:05;;;;;;;20.20;12.80;;;23.90;1.00;;;;;;5038686;28;20188;-75
2023/06/20 06:57:30;;;;;;;12.93;11.60;;;24.00;1.00;;;;;;5030537;28;20768;-72
2023/06/20 06:59:56;;;;;;;14.80;12.57;;;24.10;1.00;;;;;;5030176;28;20470;-72
2023/06/20 07:02:22;;;;;;;14.10;12.40;;;24.30;1.00;;;;;;5029997;28;20189;-72
2023/06/20 07:04:47;;;;;;;16.53;12.30;;;24.30;1.00;;;;;;5029604;28;20279;-72
2023/06/20 07:07:13;;;;;;;14.40;12.90;;;24.70;1.00;;;;;;5042152;28;20850;-72
2023/06/20 07:09:38;;;;;;;14.67;11.93;;;24.30;1.00;;;;;;5033469;28;20212;-73
2023/06/20 07:12:05;;;;;;;13.57;12.13;;;24.40;1.00;;;;;;5026399;28;20754;-72
2023/06/20 07:14:31;;;;;;;13.43;11.97;;;24.60;1.00;;;;;;5060350;28;20275;-71
2023/06/20 07:16:57;;;;;;;13.50;12.20;;;24.70;1.00;;;;;;5029413;28;20459;-73
2023/06/20 07:19:22;;;;;;;13.80;12.13;;;25.40;1.00;;;;;;5028823;28;20878;-72
2023/06/20 07:21:48;;;;;;;14.53;12.10;;;24.90;1.00;;;;;;5029963;28;20721;-72
2023/06/20 07:24:13;;;;;;;13.30;11.90;;;24.90;1.00;;;;;;5034922;28;20185;-72
2023/06/20 07:26:39;;;;;;;15.20;11.10;;;25.20;1.00;;;;;;5041421;28;20260;-73
2023/06/20 07:29:04;;;;;;;14.80;12.33;;;25.30;1.00;;;;;;5025872;28;20207;-73
2023/06/20 07:31:30;;;;;;;14.00;12.00;;;25.50;1.00;;;;;;5030622;28;20207;-74
2023/06/20 07:33:55;;;;;;;14.20;11.37;;;25.70;1.00;;;;;;5031697;28;20258;-74
2023/06/20 07:36:21;;;;;;;13.80;12.40;;;25.90;1.00;;;;;;5037549;28;20239;-74
2023/06/20 07:38:46;;;;;;;19.10;11.93;;;26.00;1.00;;;;;;5037934;28;20619;-76
2023/06/20 07:41:12;;;;;;;13.00;11.70;;;26.00;1.00;;;;;;5035489;28;20176;-75
2023/06/20 07:43:37;;;;;;;13.47;11.00;;;26.10;1.00;;;;;;5037132;28;20185;-75
2023/06/20 07:46:03;;;;;;;12.50;11.17;;;26.20;1.00;;;;;;5038005;28;20713;-76
2023/06/20 07:48:29;;;;;;;12.80;11.50;;;26.50;1.00;;;;;;5039619;28;20185;-75
2023/06/20 07:50:55;;;;;;;14.07;11.07;;;26.70;1.00;;;;;;5038332;28;20284;-74
2023/06/20 07:53:21;;;;;;;15.53;11.10;;;26.90;1.00;;;;;;5030553;28;20875;-73
2023/06/20 07:55:46;;;;;;;11.70;10.37;;;27.10;1.00;;;;;;5026564;28;20177;-77
2023/06/20 07:58:12;;;;;;;13.43;11.80;;;27.40;1.00;;;;;;5021460;28;20177;-74
2023/06/20 08:00:38;;;;;;;11.67;10.37;;;27.40;1.00;;;;;;5058191;28;20255;-76
2023/06/20 08:03:03;;;;;;;12.40;11.03;;;27.80;1.00;;;;;;5058740;28;20193;-74
2023/06/20 08:05:29;;;;;;;12.53;10.17;;;28.00;1.00;;;;;;5026340;28;20654;-75
2023/06/20 08:07:54;;;;;;;12.33;10.80;;;28.00;1.00;;;;;;5024903;28;20235;-74
2023/06/20 08:10:20;;;;;;;15.40;10.90;;;28.50;1.00;;;;;;5027739;28;20211;-74
2023/06/20 08:12:45;;;;;;;12.80;10.57;;;28.50;1.00;;;;;;5027138;28;20220;-74
2023/06/20 08:15:11;;;;;;;15.20;10.87;;;28.60;1.00;;;;;;5026276;28;20205;-74
2023/06/20 08:17:37;;;;;;;14.07;10.50;;;28.90;1.00;;;;;;5026005;28;20231;-74
2023/06/20 08:20:06;;;;;;;10.63;9.23;;;29.40;1.00;;;;;;5031895;28;20205;-75
2023/06/20 08:22:32;;;;;;;10.33;9.30;;;29.50;1.00;;;;;;5026993;28;20275;-74
2023/06/20 08:24:58;;;;;;;13.10;9.90;;;29.50;1.00;;;;;;5020214;28;20189;-74
2023/06/20 08:27:24;;;;;;;11.27;9.97;;;29.50;1.00;;;;;;5024134;28;20639;-73
2023/06/20 08:29:49;;;;;;;13.23;10.10;;;29.50;1.00;;;;;;5029383;28;20213;-75
2023/06/20 08:32:15;;;;;;;12.70;10.50;;;29.40;1.00;;;;;;5022951;28;20207;-73
2023/06/20 08:34:40;;;;;;;13.40;9.57;;;29.20;1.00;;;;;;5026564;28;20263;-74
2023/06/20 08:37:08;;;;;;;13.30;10.70;;;29.00;1.00;;;;;;5023527;28;20209;-73
2023/06/20 08:39:33;;;;;;;12.73;10.70;;;28.90;1.00;;;;;;5026373;28;20205;-73
2023/06/20 08:41:59;;;;;;;11.47;10.30;;;28.90;1.00;;;;;;5028211;28;20180;-73
2023/06/20 08:44:25;;;;;;;13.40;10.93;;;29.20;1.00;;;;;;5029965;28;20560;-75
2023/06/20 08:46:56;;;;;;;11.93;10.67;;;29.60;1.00;;;;;;5030438;28;20189;-74
2023/06/20 08:49:22;;;;;;;16.57;11.20;;;29.50;1.00;;;;;;5037366;28;20216;-74
2023/06/20 08:51:49;;;;;;;12.50;10.73;;;29.70;1.00;;;;;;5030084;28;20282;-74
2023/06/20 08:54:18;;;;;;;12.63;10.80;;;29.90;1.00;;;;;;5033198;28;20185;-74
2023/06/20 08:56:44;;;;;;;12.50;11.10;;;29.90;1.00;;;;;;5029616;28;20242;-74
2023/06/20 08:59:10;;;;;;;11.90;10.70;;;29.90;1.00;;;;;;5028938;28;20742;-74
2023/06/20 09:01:35;;;;;;;13.20;10.87;;;30.10;1.00;;;;;;5027152;28;20243;-74
2023/06/20 09:04:02;;;;;;;11.73;10.43;;;30.30;1.00;;;;;;5033289;28;20216;-75
2023/06/20 09:06:37;;;;;;;12.85;11.00;;;30.70;1.00;;;;;;5032469;28;20196;-74
2023/06/20 09:09:13;;;;;;;16.27;10.60;;;30.40;1.00;;;;;;5021126;28;20200;-73
2023/06/20 09:11:39;;;;;;;11.68;10.25;;;30.50;1.00;;;;;;5030370;28;20180;-75
2023/06/20 09:14:04;;;;;;;12.00;10.60;;;31.00;1.00;;;;;;5035151;28;20566;-74
2023/06/20 09:16:30;;;;;;;12.32;11.00;;;31.90;1.00;;;;;;5034934;28;20180;-75
2023/06/20 09:19:00;;;;;;;13.02;10.68;;;32.40;1.00;;;;;;5038190;28;20201;-76
2023/06/20 09:21:25;;;;;;;12.07;10.45;;;33.60;1.00;;;;;;5037656;28;20642;-75
2023/06/20 09:24:04;;;;;;;12.13;10.20;;;34.80;1.00;;;;;;5038084;28;20213;-75
2023/06/20 09:26:31;;;;;;;11.98;9.98;;;35.50;1.00;;;;;;5027640;28;20673;-76
2023/06/20 09:29:15;;;;;;;15.18;10.15;;;36.40;1.00;;;;;;5035414;28;20201;-75
2023/06/20 09:31:49;;;;;;;11.77;10.57;;;36.40;1.00;;;;;;5030782;28;20202;-76
2023/06/20 09:34:19;;;;;;;13.55;10.40;;;35.30;1.00;;;;;;5031678;28;20185;-75
2023/06/20 09:36:45;;;;;;;10.32;9.32;;;35.90;1.00;;;;;;5031350;28;20235;-75
2023/06/20 09:39:15;;;;;;;14.05;10.30;;;36.20;1.00;;;;;;5029608;28;20608;-75
2023/06/20 09:41:49;;;;;;;11.15;10.10;;;36.30;1.00;;;;;;5033677;28;20500;-75
2023/06/20 09:44:16;;;;;;;11.63;9.48;;;36.80;1.00;;;;;;5039477;28;20467;-75
2023/06/20 09:46:42;;;;;;;10.52;9.43;;;37.60;1.00;;;;;;5033934;28;20559;-75
2023/06/20 09:49:10;;;;;;;9.82;8.82;;;37.80;1.00;;;;;;5035005;28;20215;-75
2023/06/20 09:51:52;;;;;;;11.13;9.30;;;38.00;1.00;;;;;;5037671;28;20197;-76
2023/06/20 09:54:32;;;;;;;10.98;8.68;;;37.70;1.00;;;;;;5024955;28;20264;-76
2023/06/20 09:57:02;;;;;;;8.93;8.02;;;38.00;1.00;;;;;;5027211;28;20177;-75
2023/06/20 09:59:31;;;;;;;13.25;9.35;;;38.10;1.00;;;;;;5026614;28;20224;-76
2023/06/20 10:01:59;;;;;;;10.75;9.60;;;37.10;1.00;;;;;;5033010;28;20604;-75
2023/06/20 10:04:26;;;;;;;9.95;8.80;;;37.10;1.00;;;;;;5033547;28;20656;-76
2023/06/20 10:06:55;;;;;;;10.00;9.00;;;37.70;1.00;;;;;;5033383;28;20686;-76
2023/06/20 10:09:20;;;;;;;9.43;8.55;;;38.40;1.00;;;;;;5028102;28;20209;-75
2023/06/20 10:11:47;;;;;;;9.95;8.52;;;38.60;1.00;;;;;;5033173;28;20184;-76
2023/06/20 10:14:13;;;;;;;11.50;8.23;;;38.40;1.00;;;;;;5026050;28;20559;-76
2023/06/20 10:16:39;;;;;;;9.63;8.73;;;38.50;1.00;;;;;;5037450;28;20178;-75
2023/06/20 10:19:18;;;;;;;9.10;8.20;;;38.90;1.00;;;;;;5038029;28;20726;-75
2023/06/20 10:21:59;;;;;;;9.27;8.27;;;39.20;1.00;;;;;;5029159;28;20258;-77
2023/06/20 10:24:29;;;;;;;9.00;8.10;;;39.60;1.00;;;;;;5029809;28;20738;-76
2023/06/20 10:27:01;;;;;;;9.07;8.20;;;40.20;1.00;;;;;;5029585;28;20185;-76
2023/06/20 10:29:27;;;;;;;10.20;9.10;;;40.20;1.00;;;;;;5033398;28;20197;-77
2023/06/20 10:32:04;;;;;;;9.68;8.60;;;40.60;1.00;;;;;;5030203;28;20174;-76
2023/06/20 10:34:38;;;;;;;10.30;8.35;;;40.70;1.00;;;;;;5028444;28;20181;-76
2023/06/20 10:37:24;;;;;;;8.50;7.60;;;41.30;1.00;;;;;;5027397;28;20173;-76
2023/06/20 10:39:54;;;;;;;8.82;7.90;;;41.20;1.00;;;;;;5035998;28;20584;-77
2023/06/20 10:42:39;;;;;;;10.68;7.63;;;41.50;1.00;;;;;;5030215;28;20196;-76
2023/06/20 10:45:29;;;;;;;8.68;7.78;;;41.30;1.00;;;;;;5042977;28;20188;-76
2023/06/20 10:47:55;;;;;;;9.25;7.60;;;41.30;1.00;;;;;;5029520;28;20185;-75
2023/06/20 10:50:21;;;;;;;9.70;8.52;;;41.50;1.00;;;;;;5028587;28;20208;-76
2023/06/20 10:52:47;;;;;;;14.00;9.23;;;41.00;1.00;;;;;;5030023;28;20193;-76
2023/06/20 10:55:20;;;;;;;10.70;7.97;;;41.50;1.00;;;;;;5024648;28;20189;-75
2023/06/20 10:57:50;;;;;;;8.27;7.45;;;42.30;1.00;;;;;;5030825;28;20188;-75
2023/06/20 11:00:18;;;;;;;10.70;7.60;;;41.00;1.00;;;;;;5036651;28;20212;-76
2023/06/20 11:02:54;;;;;;;7.85;6.95;;;40.00;1.00;;;;;;5037153;28;20543;-76
2023/06/20 11:05:27;;;;;;;9.82;7.07;;;40.60;1.00;;;;;;5027674;28;20722;-75
2023/06/20 11:07:58;;;;;;;12.32;7.35;;;41.40;1.00;;;;;;5028523;28;20440;-75
2023/06/20 11:10:32;;;;;;;9.90;7.90;;;41.30;1.00;;;;;;5028769;28;20216;-76
2023/06/20 11:13:00;;;;;;;8.20;7.40;;;41.70;1.00;;;;;;5025493;28;20189;-76
2023/06/20 11:15:31;;;;;;;8.85;7.30;;;42.60;1.00;;;;;;5035787;28;20184;-76
2023/06/20 11:18:00;;;;;;;9.98;6.88;;;43.80;1.00;;;;;;5039344;28;20181;-76
2023/06/20 11:20:26;;;;;;;8.35;6.72;;;44.40;1.00;;;;;;5036848;28;20204;-77
2023/06/20 11:22:56;;;;;;;11.45;7.60;;;44.60;1.00;;;;;;5028486;28;20184;-76
2023/06/20 11:25:25;;;;;;;10.60;7.55;;;44.30;1.00;;;;;;5027722;28;20212;-76
2023/06/20 11:27:50;;;;;;;8.20;7.40;;;44.40;1.00;;;;;;5027913;28;20686;-75
2023/06/20 11:30:23;;;;;;;8.10;7.30;;;44.00;1.00;;;;;;5030959;28;20216;-76
2023/06/20 11:33:03;;;;;;;8.48;7.35;;;43.70;1.00;;;;;;5026447;28;20196;-75
2023/06/20 11:35:38;;;;;;;8.93;7.43;;;43.60;1.00;;;;;;5030539;28;20181;-76
2023/06/20 11:38:04;;;;;;;7.75;6.95;;;43.10;1.00;;;;;;5036277;28;20284;-76
2023/06/20 11:40:29;;;;;;;12.48;6.85;;;42.80;1.00;;;;;;5037223;28;20299;-76
2023/06/20 11:42:55;;;;;;;7.82;6.63;;;43.10;1.00;;;;;;5029667;28;20178;-76
2023/06/20 11:45:28;;;;;;;7.78;6.97;;;43.70;1.00;;;;;;5032796;28;20280;-75
2023/06/20 11:48:14;;;;;;;7.78;6.72;;;44.20;1.00;;;;;;5037107;28;20192;-76
2023/06/20 11:50:42;;;;;;;8.95;7.00;;;44.50;1.00;;;;;;5027673;28;20231;-75
2023/06/20 11:53:20;;;;;;;13.18;7.65;;;44.40;1.00;;;;;;5026795;28;20173;-75
2023/06/20 11:55:51;;;;;;;8.73;7.13;;;44.00;1.00;;;;;;5024824;28;20219;-76
2023/06/20 11:58:17;;;;;;;7.68;6.88;;;44.00;1.00;;;;;;5027840;28;20185;-76
2023/06/20 12:00:47;;;;;;;10.13;7.55;;;44.50;1.00;;;;;;5025433;28;20205;-76
2023/06/20 12:03:21;;;;;;;7.53;6.82;;;44.20;1.00;;;;;;5024513;28;20181;-77
2023/06/20 12:05:47;;;;;;;8.30;7.47;;;44.50;1.00;;;;;;5028149;28;20185;-76
2023/06/20 12:08:13;;;;;;;10.07;7.07;;;44.90;1.00;;;;;;5027989;28;20250;-76
2023/06/20 12:10:57;;;;;;;11.95;6.90;;;45.40;1.00;;;;;;5030930;28;20210;-75
2023/06/20 12:13:22;;;;;;;7.63;6.85;;;45.40;1.00;;;;;;5033294;28;20203;-75
2023/06/20 12:15:48;;;;;;;7.63;6.55;;;45.40;1.00;;;;;;5027073;28;20652;-76
2023/06/20 12:18:13;;;;;;;10.38;6.60;;;44.80;1.00;;;;;;5024221;28;20193;-76
2023/06/20 12:20:39;;;;;;;7.65;6.50;;;44.30;1.00;;;;;;5026580;28;20208;-75
2023/06/20 12:23:04;;;;;;;11.07;6.72;;;43.20;1.00;;;;;;5027516;28;20536;-76
2023/06/20 12:25:30;;;;;;;8.18;6.72;;;43.00;1.00;;;;;;5026279;28;20184;-75
2023/06/20 12:27:57;;;;;;;7.40;6.55;;;43.70;1.00;;;;;;5032769;28;20660;-75
2023/06/20 12:30:25;;;;;;;8.48;6.70;;;43.90;1.00;;;;;;5035746;28;21872;-76
2023/06/20 12:32:51;;;;;;;7.15;6.10;;;43.90;1.00;;;;;;5031018;28;20176;-76
2023/06/20 12:35:16;;;;;;;6.90;6.30;;;43.90;1.00;;;;;;5030930;28;20180;-76
2023/06/20 12:37:42;;;;;;;9.35;6.45;;;44.60;1.00;;;;;;5037183;28;20230;-76
2023/06/20 12:40:09;;;;;;;7.65;6.03;;;45.10;1.00;;;;;;5040240;28;20301;-76
2023/06/20 12:42:36;;;;;;;7.68;5.90;;;45.40;1.00;;;;;;5028839;28;20185;-76
2023/06/20 12:45:02;;;;;;;7.63;6.47;;;45.30;1.00;;;;;;5036082;28;20181;-76
2023/06/20 12:47:27;;;;;;;8.93;6.25;;;43.60;1.00;;;;;;5031044;28;20193;-76